createdAt,value
2023-04-20T00:00:20.330Z,101713.58
2023-04-20T00:00:50.756Z,101714.42
2023-04-20T00:01:21.169Z,101712.27
2023-04-20T00:01:51.604Z,101712.25
2023-04-20T00:02:22.084Z,101713.11
2023-04-20T00:02:52.636Z,101712.05
2023-04-20T00:03:23.228Z,101710.35
2023-04-20T00:03:53.919Z,101709.19
2023-04-20T00:04:24.482Z,101712.58
2023-04-20T00:04:54.936Z,101708.39
2023-04-20T00:05:25.421Z,101711.22
2023-04-20T00:05:55.878Z,101709.52
2023-04-20T00:06:26.294Z,101711.71
2023-04-20T00:06:56.720Z,101709.22
2023-04-20T00:07:27.138Z,101705.53
2023-04-20T00:07:57.557Z,101707.55
2023-04-20T00:08:27.976Z,101709.88
2023-04-20T00:08:58.399Z,101708.70
2023-04-20T00:09:28.857Z,101709.91
2023-04-20T00:09:59.265Z,101709.91
2023-04-20T00:10:29.709Z,101711.75
2023-04-20T00:11:00.129Z,101709.52
2023-04-20T00:11:30.549Z,101711.93
2023-04-20T00:12:00.966Z,101711.54
2023-04-20T00:12:31.379Z,101712.12
2023-04-20T00:13:01.828Z,101712.31
2023-04-20T00:13:32.234Z,101715.13
2023-04-20T00:14:02.672Z,101713.41
2023-04-20T00:14:33.099Z,101714.97
2023-04-20T00:15:03.521Z,101709.56
2023-04-20T00:15:33.940Z,101713.61
2023-04-20T00:16:04.371Z,101713.28
2023-04-20T00:16:34.852Z,101713.48
2023-04-20T00:17:05.306Z,101708.77
2023-04-20T00:17:35.699Z,101711.83
2023-04-20T00:18:06.159Z,101705.42
2023-04-20T00:18:36.584Z,101708.45
2023-04-20T00:19:07.007Z,101706.09
2023-04-20T00:19:37.448Z,101706.27
2023-04-20T00:20:07.889Z,101704.56
2023-04-20T00:20:38.301Z,101705.75
2023-04-20T00:21:08.734Z,101708.29
2023-04-20T00:21:39.155Z,101705.58
2023-04-20T00:22:09.577Z,101708.95
2023-04-20T00:22:39.999Z,101702.20
2023-04-20T00:23:10.434Z,101704.53
2023-04-20T00:23:40.859Z,101699.45
2023-04-20T00:24:11.330Z,101701.09
2023-04-20T00:24:41.770Z,101702.15
2023-04-20T00:25:12.202Z,101699.59
2023-04-20T00:25:42.622Z,101700.30
2023-04-20T00:26:13.034Z,101695.92
2023-04-20T00:26:43.453Z,101700.61
2023-04-20T00:27:13.899Z,101700.98
2023-04-20T00:27:44.342Z,101699.81
2023-04-20T00:28:14.790Z,101702.20
2023-04-20T00:28:45.182Z,101703.23
2023-04-20T00:29:15.779Z,101702.91
2023-04-20T00:29:46.273Z,101705.59
2023-04-20T00:30:16.693Z,101708.23
2023-04-20T00:30:47.170Z,101712.27
2023-04-20T00:31:17.646Z,101708.05
2023-04-20T00:31:48.036Z,101710.91
2023-04-20T00:32:18.461Z,101708.39
2023-04-20T00:32:48.899Z,101710.11
2023-04-20T00:33:19.304Z,101710.59
2023-04-20T00:33:49.738Z,101709.08
2023-04-20T00:34:20.150Z,101709.91
2023-04-20T00:34:50.597Z,101705.19
2023-04-20T00:35:21.005Z,101707.09
2023-04-20T00:35:51.426Z,101708.12
2023-04-20T00:36:21.864Z,101708.47
2023-04-20T00:36:52.279Z,101707.09
2023-04-20T00:37:22.709Z,101707.11
2023-04-20T00:37:53.143Z,101706.44
2023-04-20T00:38:23.552Z,101705.20
2023-04-20T00:38:53.974Z,101704.58
2023-04-20T00:39:24.394Z,101704.07
2023-04-20T00:39:54.846Z,101704.19
2023-04-20T00:40:25.267Z,101704.86
2023-04-20T00:40:55.699Z,101705.19
2023-04-20T00:41:26.118Z,101702.50
2023-04-20T00:41:56.544Z,101705.36
2023-04-20T00:42:26.964Z,101705.03
2023-04-20T00:42:57.390Z,101701.81
2023-04-20T00:43:27.824Z,101701.30
2023-04-20T00:43:58.230Z,101700.80
2023-04-20T00:44:28.649Z,101699.27
2023-04-20T00:44:59.084Z,101701.44
2023-04-20T00:45:29.510Z,101703.45
2023-04-20T00:45:59.951Z,101699.94
2023-04-20T00:46:30.366Z,101699.41
2023-04-20T00:47:00.772Z,101700.80
2023-04-20T00:47:31.232Z,101702.47
2023-04-20T00:48:01.691Z,101700.14
2023-04-20T00:48:32.102Z,101704.00
2023-04-20T00:49:02.523Z,101704.34
2023-04-20T00:49:32.949Z,101706.52
2023-04-20T00:50:03.381Z,101702.17
2023-04-20T00:50:33.804Z,101702.50
2023-04-20T00:51:04.227Z,101701.49
2023-04-20T00:51:34.660Z,101703.67
2023-04-20T00:52:05.080Z,101703.12
2023-04-20T00:52:35.510Z,101705.14
2023-04-20T00:53:05.922Z,101702.06
2023-04-20T00:53:36.344Z,101699.70
2023-04-20T00:54:06.770Z,101700.05
2023-04-20T00:54:37.194Z,101694.54
2023-04-20T00:55:07.625Z,101697.61
2023-04-20T00:55:38.051Z,101697.41
2023-04-20T00:56:08.465Z,101700.11
2023-04-20T00:56:38.887Z,101695.08
2023-04-20T00:57:09.314Z,101697.06
2023-04-20T00:57:39.741Z,101697.56
2023-04-20T00:58:10.163Z,101698.89
2023-04-20T00:58:40.605Z,101695.69
2023-04-20T00:59:11.005Z,101696.25
2023-04-20T00:59:41.429Z,101697.26
2023-04-20T01:00:11.901Z,101695.23
2023-04-20T01:00:42.339Z,101694.94
2023-04-20T01:01:12.765Z,101696.47
2023-04-20T01:01:43.284Z,101694.12
2023-04-20T01:02:13.738Z,101692.95
2023-04-20T01:02:44.205Z,101689.23
2023-04-20T01:03:14.753Z,101695.72
2023-04-20T01:03:45.426Z,101690.64
2023-04-20T01:04:15.997Z,101694.15
2023-04-20T01:04:46.426Z,101693.14
2023-04-20T01:05:16.883Z,101697.03
2023-04-20T01:05:47.299Z,101694.97
2023-04-20T01:06:17.717Z,101692.64
2023-04-20T01:06:48.150Z,101692.11
2023-04-20T01:07:18.591Z,101694.23
2023-04-20T01:07:48.996Z,101695.05
2023-04-20T01:08:19.413Z,101697.73
2023-04-20T01:08:49.852Z,101695.73
2023-04-20T01:09:20.269Z,101695.46
2023-04-20T01:09:50.692Z,101696.05
2023-04-20T01:10:21.127Z,101695.55
2023-04-20T01:10:51.559Z,101693.73
2023-04-20T01:11:21.989Z,101689.52
2023-04-20T01:11:52.404Z,101686.69
2023-04-20T01:12:22.835Z,101691.36
2023-04-20T01:12:53.262Z,101690.20
2023-04-20T01:13:23.672Z,101691.59
2023-04-20T01:13:54.116Z,101689.75
2023-04-20T01:14:24.520Z,101694.58
2023-04-20T01:14:54.941Z,101694.67
2023-04-20T01:15:25.387Z,101693.27
2023-04-20T01:15:55.825Z,101692.31
2023-04-20T01:16:26.264Z,101695.33
2023-04-20T01:16:56.657Z,101692.12
2023-04-20T01:17:27.101Z,101695.35
2023-04-20T01:17:57.580Z,101693.66
2023-04-20T01:18:28.004Z,101696.63
2023-04-20T01:18:58.431Z,101692.94
2023-04-20T01:19:28.901Z,101691.22
2023-04-20T01:19:59.330Z,101690.92
2023-04-20T01:20:29.760Z,101693.77
2023-04-20T01:21:00.184Z,101691.60
2023-04-20T01:21:30.607Z,101693.48
2023-04-20T01:22:01.036Z,101691.83
2023-04-20T01:22:31.449Z,101689.16
2023-04-20T01:23:01.872Z,101690.84
2023-04-20T01:23:32.294Z,101691.36
2023-04-20T01:24:02.714Z,101688.00
2023-04-20T01:24:33.136Z,101687.31
2023-04-20T01:25:03.584Z,101688.19
2023-04-20T01:25:34.041Z,101688.56
2023-04-20T01:26:04.475Z,101686.55
2023-04-20T01:26:34.897Z,101686.04
2023-04-20T01:27:05.322Z,101686.55
2023-04-20T01:27:35.740Z,101684.02
2023-04-20T01:28:06.165Z,101680.70
2023-04-20T01:28:36.587Z,101681.73
2023-04-20T01:29:07.042Z,101684.97
2023-04-20T01:29:37.432Z,101681.23
2023-04-20T01:30:07.880Z,101682.75
2023-04-20T01:30:38.309Z,101680.52
2023-04-20T01:31:08.753Z,101683.20
2023-04-20T01:31:39.168Z,101684.45
2023-04-20T01:32:09.574Z,101684.95
2023-04-20T01:32:40.052Z,101682.59
2023-04-20T01:33:10.963Z,101681.28
2023-04-20T01:33:41.351Z,101680.78
2023-04-20T01:34:11.773Z,101682.94
2023-04-20T01:34:42.207Z,101686.62
2023-04-20T01:35:12.648Z,101687.33
2023-04-20T01:35:43.056Z,101681.48
2023-04-20T01:36:13.478Z,101684.52
2023-04-20T01:36:43.905Z,101686.23
2023-04-20T01:37:14.327Z,101683.52
2023-04-20T01:37:44.750Z,101680.64
2023-04-20T01:38:15.170Z,101682.33
2023-04-20T01:38:45.604Z,101680.30
2023-04-20T01:39:16.190Z,101681.82
2023-04-20T01:39:46.808Z,101686.38
2023-04-20T01:40:17.211Z,101683.86
2023-04-20T01:40:47.807Z,101682.02
2023-04-20T01:41:18.225Z,101679.69
2023-04-20T01:41:48.649Z,101679.65
2023-04-20T01:42:19.070Z,101680.83
2023-04-20T01:42:49.491Z,101684.03
2023-04-20T01:43:19.910Z,101680.14
2023-04-20T01:43:50.372Z,101680.79
2023-04-20T01:44:20.964Z,101680.48
2023-04-20T01:44:51.320Z,101679.83
2023-04-20T01:45:21.759Z,101681.82
2023-04-20T01:45:52.179Z,101679.80
2023-04-20T01:46:22.671Z,101682.02
2023-04-20T01:46:53.109Z,101684.58
2023-04-20T01:47:23.529Z,101684.58
2023-04-20T01:47:54.088Z,101684.27
2023-04-20T01:48:24.529Z,101678.89
2023-04-20T01:48:54.964Z,101681.92
2023-04-20T01:49:25.369Z,101680.05
2023-04-20T01:49:55.796Z,101681.58
2023-04-20T01:50:26.223Z,101678.13
2023-04-20T01:50:56.658Z,101678.82
2023-04-20T01:51:27.090Z,101679.13
2023-04-20T01:51:57.511Z,101679.79
2023-04-20T01:52:27.928Z,101680.48
2023-04-20T01:52:58.360Z,101680.78
2023-04-20T01:53:28.767Z,101680.55
2023-04-20T01:53:59.209Z,101677.88
2023-04-20T01:54:29.646Z,101677.53
2023-04-20T01:55:00.072Z,101677.43
2023-04-20T01:55:30.483Z,101676.77
2023-04-20T01:56:00.934Z,101681.34
2023-04-20T01:56:31.344Z,101678.14
2023-04-20T01:57:01.765Z,101677.62
2023-04-20T01:57:32.201Z,101677.44
2023-04-20T01:58:02.605Z,101677.28
2023-04-20T01:58:33.042Z,101675.09
2023-04-20T01:59:03.461Z,101677.30
2023-04-20T01:59:33.905Z,101676.61
2023-04-20T02:00:04.306Z,101672.27
2023-04-20T02:00:34.770Z,101671.41
2023-04-20T02:01:05.196Z,101674.25
2023-04-20T02:01:35.591Z,101670.04
2023-04-20T02:02:06.060Z,101670.51
2023-04-20T02:02:36.556Z,101669.50
2023-04-20T02:03:07.185Z,101671.47
2023-04-20T02:03:37.903Z,101672.98
2023-04-20T02:04:08.468Z,101671.64
2023-04-20T02:04:38.877Z,101672.37
2023-04-20T02:05:09.290Z,101670.18
2023-04-20T02:05:39.711Z,101671.02
2023-04-20T02:06:10.160Z,101669.00
2023-04-20T02:06:40.571Z,101669.00
2023-04-20T02:07:10.998Z,101671.02
2023-04-20T02:07:41.416Z,101674.25
2023-04-20T02:08:11.866Z,101673.79
2023-04-20T02:08:42.269Z,101675.25
2023-04-20T02:09:12.694Z,101672.23
2023-04-20T02:09:43.110Z,101672.78
2023-04-20T02:10:13.529Z,101671.97
2023-04-20T02:10:43.950Z,101674.13
2023-04-20T02:11:14.394Z,101673.80
2023-04-20T02:11:44.822Z,101672.97
2023-04-20T02:12:15.249Z,101675.30
2023-04-20T02:12:45.667Z,101670.29
2023-04-20T02:13:16.095Z,101670.23
2023-04-20T02:13:46.509Z,101669.91
2023-04-20T02:14:16.930Z,101673.95
2023-04-20T02:14:47.371Z,101669.39
2023-04-20T02:15:17.774Z,101670.04
2023-04-20T02:15:48.215Z,101670.25
2023-04-20T02:16:18.652Z,101670.25
2023-04-20T02:16:49.140Z,101669.88
2023-04-20T02:17:19.562Z,101670.89
2023-04-20T02:17:50.046Z,101669.75
2023-04-20T02:18:20.446Z,101672.79
2023-04-20T02:18:50.875Z,101671.44
2023-04-20T02:19:21.318Z,101672.79
2023-04-20T02:19:51.702Z,101674.97
2023-04-20T02:20:22.135Z,101671.95
2023-04-20T02:20:52.550Z,101673.48
2023-04-20T02:21:22.989Z,101670.74
2023-04-20T02:21:53.435Z,101671.77
2023-04-20T02:22:23.841Z,101671.72
2023-04-20T02:22:54.268Z,101671.09
2023-04-20T02:23:24.678Z,101672.52
2023-04-20T02:23:55.104Z,101674.87
2023-04-20T02:24:25.541Z,101675.70
2023-04-20T02:24:55.965Z,101683.98
2023-04-20T02:25:26.391Z,101683.31
2023-04-20T02:25:56.810Z,101683.14
2023-04-20T02:26:27.259Z,101682.12
2023-04-20T02:26:57.692Z,101684.31
2023-04-20T02:27:28.120Z,101687.19
2023-04-20T02:27:58.542Z,101680.47
2023-04-20T02:28:28.964Z,101682.96
2023-04-20T02:28:59.385Z,101681.12
2023-04-20T02:29:29.805Z,101684.83
2023-04-20T02:30:00.267Z,101683.65
2023-04-20T02:30:30.650Z,101684.47
2023-04-20T02:31:01.138Z,101685.30
2023-04-20T02:31:31.654Z,101684.43
2023-04-20T02:32:02.122Z,101682.23
2023-04-20T02:32:32.577Z,101685.44
2023-04-20T02:33:03.067Z,101686.30
2023-04-20T02:33:33.462Z,101686.81
2023-04-20T02:34:03.886Z,101685.14
2023-04-20T02:34:34.310Z,101683.17
2023-04-20T02:35:04.756Z,101683.48
2023-04-20T02:35:35.183Z,101683.67
2023-04-20T02:36:05.582Z,101684.83
2023-04-20T02:36:36.013Z,101684.94
2023-04-20T02:37:06.458Z,101682.39
2023-04-20T02:37:36.859Z,101682.41
2023-04-20T02:38:07.291Z,101679.55
2023-04-20T02:38:37.703Z,101682.06
2023-04-20T02:39:08.144Z,101681.05
2023-04-20T02:39:38.559Z,101681.27
2023-04-20T02:40:08.980Z,101681.39
2023-04-20T02:40:39.398Z,101680.73
2023-04-20T02:41:09.830Z,101680.03
2023-04-20T02:41:40.265Z,101683.02
2023-04-20T02:42:10.706Z,101682.91
2023-04-20T02:42:41.138Z,101681.34
2023-04-20T02:43:11.546Z,101679.13
2023-04-20T02:43:41.972Z,101679.62
2023-04-20T02:44:12.414Z,101681.15
2023-04-20T02:44:42.816Z,101677.44
2023-04-20T02:45:13.286Z,101680.62
2023-04-20T02:45:43.661Z,101677.23
2023-04-20T02:46:14.112Z,101678.45
2023-04-20T02:46:44.577Z,101675.44
2023-04-20T02:47:14.965Z,101674.44
2023-04-20T02:47:45.422Z,101675.94
2023-04-20T02:48:15.815Z,101675.59
2023-04-20T02:48:46.229Z,101677.44
2023-04-20T02:49:16.933Z,101677.59
2023-04-20T02:49:47.445Z,101676.91
2023-04-20T02:50:17.886Z,101678.73
2023-04-20T02:50:48.288Z,101678.22
2023-04-20T02:51:18.709Z,101676.26
2023-04-20T02:51:49.156Z,101677.10
2023-04-20T02:52:19.587Z,101674.76
2023-04-20T02:52:50.007Z,101676.80
2023-04-20T02:53:20.432Z,101675.94
2023-04-20T02:53:50.859Z,101679.30
2023-04-20T02:54:21.273Z,101676.12
2023-04-20T02:54:51.709Z,101676.32
2023-04-20T02:55:22.118Z,101676.62
2023-04-20T02:55:52.539Z,101676.78
2023-04-20T02:56:22.955Z,101676.78
2023-04-20T02:56:53.867Z,101676.80
2023-04-20T02:57:24.256Z,101679.82
2023-04-20T02:57:54.676Z,101680.48
2023-04-20T02:58:25.105Z,101679.64
2023-04-20T02:58:55.523Z,101682.18
2023-04-20T02:59:25.954Z,101680.49
2023-04-20T02:59:56.371Z,101682.20
2023-04-20T03:00:26.806Z,101677.84
2023-04-20T03:00:57.212Z,101677.80
2023-04-20T03:01:27.717Z,101678.46
2023-04-20T03:01:58.187Z,101678.84
2023-04-20T03:02:28.786Z,101678.66
2023-04-20T03:02:59.369Z,101679.72
2023-04-20T03:03:30.025Z,101677.19
2023-04-20T03:04:00.641Z,101680.81
2023-04-20T03:04:31.368Z,101680.16
2023-04-20T03:05:01.778Z,101682.00
2023-04-20T03:05:32.204Z,101680.98
2023-04-20T03:06:02.619Z,101680.70
2023-04-20T03:06:33.044Z,101683.87
2023-04-20T03:07:03.488Z,101684.08
2023-04-20T03:07:33.906Z,101681.22
2023-04-20T03:08:04.331Z,101681.37
2023-04-20T03:08:34.775Z,101681.73
2023-04-20T03:09:05.212Z,101682.62
2023-04-20T03:09:35.628Z,101682.26
2023-04-20T03:10:06.051Z,101681.92
2023-04-20T03:10:36.477Z,101685.05
2023-04-20T03:11:06.917Z,101682.83
2023-04-20T03:11:37.339Z,101681.84
2023-04-20T03:12:07.776Z,101682.86
2023-04-20T03:12:38.205Z,101679.02
2023-04-20T03:13:08.624Z,101682.86
2023-04-20T03:13:39.049Z,101676.94
2023-04-20T03:14:09.496Z,101678.30
2023-04-20T03:14:39.914Z,101677.02
2023-04-20T03:15:10.324Z,101678.57
2023-04-20T03:15:40.770Z,101680.09
2023-04-20T03:16:11.185Z,101680.88
2023-04-20T03:16:41.650Z,101683.95
2023-04-20T03:17:12.116Z,101683.96
2023-04-20T03:17:42.577Z,101682.12
2023-04-20T03:18:12.978Z,101686.30
2023-04-20T03:18:43.396Z,101685.61
2023-04-20T03:19:13.822Z,101683.25
2023-04-20T03:19:44.238Z,101686.14
2023-04-20T03:20:14.662Z,101681.27
2023-04-20T03:20:45.085Z,101680.93
2023-04-20T03:21:15.508Z,101682.59
2023-04-20T03:21:45.923Z,101678.91
2023-04-20T03:22:16.359Z,101679.88
2023-04-20T03:22:46.851Z,101680.38
2023-04-20T03:23:17.226Z,101676.30
2023-04-20T03:23:47.669Z,101677.98
2023-04-20T03:24:18.101Z,101680.20
2023-04-20T03:24:48.518Z,101674.45
2023-04-20T03:25:18.950Z,101678.11
2023-04-20T03:25:49.360Z,101678.42
2023-04-20T03:26:19.782Z,101681.34
2023-04-20T03:26:50.201Z,101682.02
2023-04-20T03:27:20.642Z,101683.91
2023-04-20T03:27:51.059Z,101679.73
2023-04-20T03:28:21.484Z,101685.97
2023-04-20T03:28:51.905Z,101684.30
2023-04-20T03:29:22.330Z,101683.91
2023-04-20T03:29:52.756Z,101682.23
2023-04-20T03:30:23.170Z,101684.25
2023-04-20T03:30:53.616Z,101683.91
2023-04-20T03:31:24.046Z,101686.42
2023-04-20T03:31:54.507Z,101687.48
2023-04-20T03:32:24.915Z,101688.97
2023-04-20T03:32:55.402Z,101688.99
2023-04-20T03:33:25.842Z,101690.15
2023-04-20T03:33:56.263Z,101687.45
2023-04-20T03:34:26.687Z,101688.59
2023-04-20T03:34:57.101Z,101684.87
2023-04-20T03:35:27.526Z,101689.02
2023-04-20T03:35:57.947Z,101684.84
2023-04-20T03:36:28.395Z,101683.87
2023-04-20T03:36:58.812Z,101688.59
2023-04-20T03:37:29.244Z,101688.13
2023-04-20T03:37:59.675Z,101691.33
2023-04-20T03:38:30.085Z,101691.83
2023-04-20T03:39:00.506Z,101692.67
2023-04-20T03:39:30.945Z,101691.48
2023-04-20T03:40:01.369Z,101694.50
2023-04-20T03:40:31.794Z,101690.82
2023-04-20T03:41:02.217Z,101692.30
2023-04-20T03:41:32.642Z,101693.63
2023-04-20T03:42:03.063Z,101695.65
2023-04-20T03:42:33.513Z,101698.86
2023-04-20T03:43:03.937Z,101695.00
2023-04-20T03:43:34.357Z,101696.16
2023-04-20T03:44:04.774Z,101696.33
2023-04-20T03:44:35.199Z,101701.66
2023-04-20T03:45:05.646Z,101696.83
2023-04-20T03:45:36.096Z,101700.39
2023-04-20T03:46:06.598Z,101699.25
2023-04-20T03:46:36.981Z,101696.34
2023-04-20T03:47:07.413Z,101701.59
2023-04-20T03:47:37.880Z,101700.05
2023-04-20T03:48:08.312Z,101698.41
2023-04-20T03:48:38.731Z,101698.59
2023-04-20T03:49:09.158Z,101699.27
2023-04-20T03:49:39.575Z,101701.16
2023-04-20T03:50:10.000Z,101695.89
2023-04-20T03:50:40.420Z,101696.90
2023-04-20T03:51:10.839Z,101695.55
2023-04-20T03:51:41.263Z,101691.84
2023-04-20T03:52:11.682Z,101691.17
2023-04-20T03:52:42.128Z,101693.02
2023-04-20T03:53:12.543Z,101689.45
2023-04-20T03:53:42.962Z,101689.62
2023-04-20T03:54:13.387Z,101694.17
2023-04-20T03:54:43.812Z,101689.24
2023-04-20T03:55:14.232Z,101687.74
2023-04-20T03:55:44.650Z,101684.92
2023-04-20T03:56:15.095Z,101686.45
2023-04-20T03:56:45.525Z,101686.80
2023-04-20T03:57:15.938Z,101688.16
2023-04-20T03:57:46.482Z,101686.30
2023-04-20T03:58:16.862Z,101687.62
2023-04-20T03:58:47.275Z,101690.31
2023-04-20T03:59:17.987Z,101689.98
2023-04-20T03:59:48.496Z,101690.98
2023-04-20T04:00:18.917Z,101690.66
2023-04-20T04:00:49.339Z,101691.17
2023-04-20T04:01:19.780Z,101692.20
2023-04-20T04:01:50.222Z,101692.56
2023-04-20T04:02:20.739Z,101693.41
2023-04-20T04:02:51.265Z,101691.36
2023-04-20T04:03:21.918Z,101695.06
2023-04-20T04:03:52.738Z,101695.39
2023-04-20T04:04:23.429Z,101698.12
2023-04-20T04:04:54.152Z,101696.45
2023-04-20T04:05:24.688Z,101691.38
2023-04-20T04:05:55.077Z,101696.91
2023-04-20T04:06:25.503Z,101698.41
2023-04-20T04:06:55.922Z,101698.94
2023-04-20T04:07:26.351Z,101697.41
2023-04-20T04:07:56.811Z,101694.04
2023-04-20T04:08:27.212Z,101698.23
2023-04-20T04:08:57.629Z,101695.00
2023-04-20T04:09:28.054Z,101694.19
2023-04-20T04:09:58.474Z,101693.37
2023-04-20T04:10:28.906Z,101696.27
2023-04-20T04:10:59.326Z,101691.80
2023-04-20T04:11:29.734Z,101695.33
2023-04-20T04:12:00.207Z,101691.12
2023-04-20T04:12:30.581Z,101694.32
2023-04-20T04:13:01.014Z,101696.02
2023-04-20T04:13:33.786Z,101695.32
2023-04-20T04:14:04.920Z,101696.45
2023-04-20T04:14:35.354Z,101695.42
2023-04-20T04:15:05.760Z,101699.48
2023-04-20T04:15:36.178Z,101697.64
2023-04-20T04:16:06.622Z,101695.64
2023-04-20T04:16:37.118Z,101694.75
2023-04-20T04:17:07.584Z,101695.95
2023-04-20T04:17:38.113Z,101696.28
2023-04-20T04:18:08.559Z,101697.75
2023-04-20T04:18:38.969Z,101698.12
2023-04-20T04:19:09.389Z,101698.70
2023-04-20T04:19:39.797Z,101698.08
2023-04-20T04:20:10.228Z,101699.26
2023-04-20T04:20:40.653Z,101697.19
2023-04-20T04:21:11.084Z,101696.84
2023-04-20T04:21:41.507Z,101693.31
2023-04-20T04:22:11.925Z,101699.53
2023-04-20T04:22:42.365Z,101700.39
2023-04-20T04:23:12.782Z,101699.88
2023-04-20T04:23:43.230Z,101698.53
2023-04-20T04:24:13.662Z,101699.03
2023-04-20T04:24:44.084Z,101702.44
2023-04-20T04:25:14.508Z,101700.18
2023-04-20T04:25:44.931Z,101698.21
2023-04-20T04:26:15.351Z,101703.80
2023-04-20T04:26:45.801Z,101706.00
2023-04-20T04:27:16.235Z,101708.06
2023-04-20T04:27:46.680Z,101706.68
2023-04-20T04:28:17.084Z,101704.95
2023-04-20T04:28:47.505Z,101706.11
2023-04-20T04:29:18.192Z,101708.95
2023-04-20T04:29:48.809Z,101710.17
2023-04-20T04:30:19.233Z,101707.48
2023-04-20T04:30:49.650Z,101710.84
2023-04-20T04:31:20.106Z,101712.67
2023-04-20T04:31:50.720Z,101708.62
2023-04-20T04:32:21.236Z,101713.01
2023-04-20T04:32:51.718Z,101714.39
2023-04-20T04:33:22.141Z,101713.19
2023-04-20T04:33:52.578Z,101717.25
2023-04-20T04:34:22.998Z,101713.03
2023-04-20T04:34:53.418Z,101710.84
2023-04-20T04:35:23.901Z,101711.52
2023-04-20T04:35:54.309Z,101709.16
2023-04-20T04:36:24.722Z,101709.66
2023-04-20T04:36:55.140Z,101710.17
2023-04-20T04:37:25.562Z,101709.81
2023-04-20T04:37:55.982Z,101711.84
2023-04-20T04:38:26.415Z,101711.86
2023-04-20T04:38:56.840Z,101716.91
2023-04-20T04:39:27.265Z,101712.18
2023-04-20T04:39:57.681Z,101707.62
2023-04-20T04:40:28.117Z,101709.81
2023-04-20T04:40:58.529Z,101710.35
2023-04-20T04:41:28.978Z,101709.31
2023-04-20T04:41:59.411Z,101708.47
2023-04-20T04:42:29.830Z,101710.66
2023-04-20T04:43:00.260Z,101714.53
2023-04-20T04:43:30.717Z,101712.49
2023-04-20T04:44:01.125Z,101711.34
2023-04-20T04:44:31.563Z,101713.52
2023-04-20T04:45:01.993Z,101714.34
2023-04-20T04:45:32.390Z,101718.58
2023-04-20T04:46:02.834Z,101721.10
2023-04-20T04:46:33.276Z,101721.08
2023-04-20T04:47:03.719Z,101725.27
2023-04-20T04:47:34.149Z,101724.59
2023-04-20T04:48:06.054Z,101721.59
2023-04-20T04:48:37.646Z,101718.69
2023-04-20T04:49:08.079Z,101717.22
2023-04-20T04:49:38.537Z,101718.88
2023-04-20T04:50:08.921Z,101717.05
2023-04-20T04:50:39.423Z,101719.39
2023-04-20T04:51:09.942Z,101713.15
2023-04-20T04:51:40.356Z,101714.98
2023-04-20T04:52:10.776Z,101716.87
2023-04-20T04:52:41.202Z,101716.16
2023-04-20T04:53:11.622Z,101716.33
2023-04-20T04:53:42.065Z,101720.20
2023-04-20T04:54:12.476Z,101718.67
2023-04-20T04:54:42.918Z,101722.72
2023-04-20T04:55:14.969Z,101725.42
2023-04-20T04:55:46.555Z,101730.31
2023-04-20T04:56:16.971Z,101729.62
2023-04-20T04:56:47.405Z,101734.85
2023-04-20T04:57:17.821Z,101736.70
2023-04-20T04:57:48.240Z,101734.53
2023-04-20T04:58:18.688Z,101733.16
2023-04-20T04:58:49.110Z,101738.19
2023-04-20T04:59:19.688Z,101737.35
2023-04-20T04:59:50.167Z,101737.87
2023-04-20T05:00:20.586Z,101734.99
2023-04-20T05:00:51.013Z,101738.22
2023-04-20T05:01:21.462Z,101736.39
2023-04-20T05:01:51.909Z,101738.91
2023-04-20T05:02:22.549Z,101735.20
2023-04-20T05:02:53.252Z,101734.67
2023-04-20T05:03:24.019Z,101734.13
2023-04-20T05:03:54.632Z,101736.64
2023-04-20T05:04:25.210Z,101728.52
2023-04-20T05:04:55.697Z,101736.00
2023-04-20T05:05:26.103Z,101733.14
2023-04-20T05:05:56.528Z,101735.64
2023-04-20T05:06:26.949Z,101738.30
2023-04-20T05:06:57.371Z,101732.26
2023-04-20T05:07:27.789Z,101728.37
2023-04-20T05:07:58.214Z,101733.41
2023-04-20T05:08:28.638Z,101737.62
2023-04-20T05:08:59.073Z,101730.90
2023-04-20T05:09:29.507Z,101728.69
2023-04-20T05:09:59.935Z,101729.38
2023-04-20T05:10:30.357Z,101725.30
2023-04-20T05:11:00.779Z,101725.66
2023-04-20T05:11:31.202Z,101720.75
2023-04-20T05:12:01.624Z,101723.56
2023-04-20T05:12:32.052Z,101719.03
2023-04-20T05:13:02.469Z,101718.72
2023-04-20T05:13:32.906Z,101720.55
2023-04-20T05:14:03.329Z,101717.01
2023-04-20T05:14:33.748Z,101718.17
2023-04-20T05:15:04.171Z,101710.12
2023-04-20T05:15:34.596Z,101712.81
2023-04-20T05:16:05.034Z,101712.27
2023-04-20T05:16:35.478Z,101712.30
2023-04-20T05:17:05.872Z,101712.60
2023-04-20T05:17:36.463Z,101711.09
2023-04-20T05:18:06.887Z,101710.41
2023-04-20T05:18:37.279Z,101713.61
2023-04-20T05:19:07.719Z,101716.33
2023-04-20T05:19:38.142Z,101719.00
2023-04-20T05:20:08.554Z,101721.68
2023-04-20T05:20:38.993Z,101721.55
2023-04-20T05:21:09.426Z,101721.53
2023-04-20T05:21:39.855Z,101725.41
2023-04-20T05:22:10.278Z,101730.47
2023-04-20T05:22:40.708Z,101729.44
2023-04-20T05:23:11.122Z,101730.64
2023-04-20T05:23:41.541Z,101733.02
2023-04-20T05:24:11.989Z,101735.56
2023-04-20T05:24:42.400Z,101735.92
2023-04-20T05:25:13.975Z,101735.54
2023-04-20T05:25:44.614Z,101734.87
2023-04-20T05:26:15.030Z,101737.74
2023-04-20T05:26:45.443Z,101739.92
2023-04-20T05:27:15.865Z,101746.33
2023-04-20T05:27:46.285Z,101747.17
2023-04-20T05:28:16.720Z,101751.70
2023-04-20T05:28:47.160Z,101746.33
2023-04-20T05:29:17.887Z,101752.56
2023-04-20T05:29:48.428Z,101742.97
2023-04-20T05:30:21.867Z,101744.80
2023-04-20T05:30:52.528Z,101743.80
2023-04-20T05:31:22.961Z,101743.10
2023-04-20T05:31:53.392Z,101737.20
2023-04-20T05:32:23.842Z,101733.31
2023-04-20T05:32:54.352Z,101733.95
2023-04-20T05:33:24.756Z,101730.96
2023-04-20T05:33:55.185Z,101731.42
2023-04-20T05:34:25.615Z,101731.94
2023-04-20T05:34:56.039Z,101735.66
2023-04-20T05:35:26.461Z,101728.55
2023-04-20T05:35:56.907Z,101725.52
2023-04-20T05:36:27.326Z,101723.69
2023-04-20T05:36:57.738Z,101725.73
2023-04-20T05:37:28.158Z,101722.03
2023-04-20T05:37:58.587Z,101721.83
2023-04-20T05:38:29.013Z,101719.78
2023-04-20T05:38:59.434Z,101719.27
2023-04-20T05:39:29.877Z,101722.31
2023-04-20T05:40:00.317Z,101723.64
2023-04-20T05:40:30.714Z,101726.50
2023-04-20T05:41:01.134Z,101728.17
2023-04-20T05:41:31.561Z,101731.06
2023-04-20T05:42:01.990Z,101729.22
2023-04-20T05:42:32.412Z,101739.11
2023-04-20T05:43:02.846Z,101739.66
2023-04-20T05:43:33.291Z,101741.14
2023-04-20T05:44:03.685Z,101740.46
2023-04-20T05:44:34.155Z,101738.46
2023-04-20T05:45:04.677Z,101734.22
2023-04-20T05:45:35.072Z,101735.42
2023-04-20T05:46:05.536Z,101731.55
2023-04-20T05:46:35.959Z,101736.09
2023-04-20T05:47:06.424Z,101735.91
2023-04-20T05:47:36.905Z,101739.62